Time;durP1;ratioP1;P1;durP2;ratioP2;P2;SDS_P1;SDS_P2;PMS_P1;PMS_P2;Temp;Humidity;BMP_temperature;BMP_pressure;BME280_temperature;BME280_humidity;BME280_pressure;Samples;Min_cycle;Max_cycle;Signal;HPM_P1;HPM_P2
2021/06/07 00:04:04;;;;;;;26.08;22.17;;;;;;;;;;4931980;29;20022;-87
2021/06/07 00:06:30;;;;;;;25.48;22.48;;;;;;;;;;4941954;29;20059;-88
2021/06/07 00:08:56;;;;;;;24.95;21.27;;;;;;;;;;4962540;29;20031;-88
2021/06/07 00:11:23;;;;;;;28.60;22.10;;;;;;;;;;4962735;29;20414;-87
2021/06/07 00:13:49;;;;;;;25.80;21.42;;;;;;;;;;4961907;28;20421;-87
2021/06/07 00:16:16;;;;;;;24.50;22.00;;;;;;;;;;4954779;28;20043;-88
2021/06/07 00:18:42;;;;;;;23.75;20.90;;;;;;;;;;4943274;29;20130;-87
2021/06/07 00:21:12;;;;;;;24.80;21.42;;;;;;;;;;4942799;29;20314;-87
2021/06/07 00:23:39;;;;;;;22.83;20.65;;;;;;;;;;4942914;29;20028;-88
2021/06/07 00:26:06;;;;;;;22.08;19.27;;;;;;;;;;4942795;29;20032;-87
2021/06/07 00:28:33;;;;;;;26.30;19.85;;;;;;;;;;4942809;29;20126;-87
2021/06/07 00:34:02;;;;;;;22.85;20.23;;;;;;;;;;4942899;29;20035;-88
2021/06/07 00:36:29;;;;;;;24.80;19.40;;;;;;;;;;4925765;29;20047;-86
2021/06/07 00:38:55;;;;;;;28.63;19.95;;;;;;;;;;4942749;29;20036;-87
2021/06/07 00:41:23;;;;;;;23.15;19.48;;;;;;;;;;4942543;29;20123;-87
2021/06/07 00:43:53;;;;;;;21.45;19.17;;;;;;;;;;4942650;29;20108;-86
2021/06/07 00:46:20;;;;;;;22.23;19.85;;;;;;;;;;4949837;29;20038;-87
2021/06/07 00:48:46;;;;;;;22.23;19.60;;;;;;;;;;4961819;29;20035;-87
2021/06/07 00:51:12;;;;;;;20.88;18.65;;;;;;;;;;4944651;29;20035;-87
2021/06/07 00:53:38;;;;;;;23.05;19.58;;;;;;;;;;4961937;29;20032;-88
2021/06/07 00:56:08;;;;;;;24.85;19.05;;;;;;;;;;4961515;29;20035;-87
2021/06/07 00:58:45;;;;;;;23.67;18.77;;;;;;;;;;4944545;29;20121;-87
2021/06/07 01:07:18;;;;;;;21.45;17.80;;;;;;;;;;4961422;29;20036;-88
2021/06/07 01:09:44;;;;;;;19.73;16.95;;;;;;;;;;4961125;29;20045;-86
2021/06/07 01:12:12;;;;;;;19.88;17.08;;;;;;;;;;4961119;29;20428;-87
2021/06/07 01:14:38;;;;;;;20.30;17.65;;;;;;;;;;4944042;29;20142;-86
2021/06/07 01:17:04;;;;;;;21.30;18.70;;;;;;;;;;4960835;28;20058;-87
2021/06/07 01:19:30;;;;;;;18.83;16.92;;;;;;;;;;4943741;29;20050;-86
2021/06/07 01:22:01;;;;;;;19.80;16.98;;;;;;;;;;4944113;29;20109;-86
2021/06/07 01:24:27;;;;;;;19.48;16.30;;;;;;;;;;4961289;29;20031;-88
2021/06/07 01:26:53;;;;;;;18.40;15.90;;;;;;;;;;4944116;29;20028;-87
2021/06/07 01:29:19;;;;;;;21.35;15.85;;;;;;;;;;4960880;29;20043;-86
2021/06/07 01:31:45;;;;;;;20.50;16.00;;;;;;;;;;4961058;29;20039;-87
2021/06/07 01:34:12;;;;;;;20.17;15.90;;;;;;;;;;4961135;29;20059;-87
2021/06/07 01:36:38;;;;;;;20.52;15.55;;;;;;;;;;4960785;29;20046;-89
2021/06/07 01:39:04;;;;;;;20.20;15.18;;;;;;;;;;4960823;29;20122;-90
2021/06/07 01:41:30;;;;;;;23.20;14.80;;;;;;;;;;4961105;29;20062;-90
2021/06/07 01:43:56;;;;;;;19.20;14.57;;;;;;;;;;4960611;29;20042;-88
2021/06/07 01:46:22;;;;;;;21.08;15.55;;;;;;;;;;4960880;29;20032;-88
2021/06/07 01:48:48;;;;;;;19.90;15.93;;;;;;;;;;4960499;29;20413;-88
2021/06/07 01:51:14;;;;;;;20.83;15.55;;;;;;;;;;4960841;29;20330;-87
2021/06/07 01:53:41;;;;;;;20.40;15.27;;;;;;;;;;4943442;29;20039;-87
2021/06/07 01:56:09;;;;;;;21.42;15.68;;;;;;;;;;4960800;29;20374;-87
2021/06/07 01:58:35;;;;;;;19.92;15.57;;;;;;;;;;4942087;29;20039;-87
2021/06/07 02:01:05;;;;;;;19.73;15.35;;;;;;;;;;4941341;29;20035;-87
2021/06/07 02:03:31;;;;;;;20.35;15.35;;;;;;;;;;4941337;29;20095;-87
2021/06/07 02:06:01;;;;;;;17.38;15.52;;;;;;;;;;4941031;29;20406;-87
2021/06/07 02:08:30;;;;;;;17.33;15.10;;;;;;;;;;4941136;29;20027;-86
2021/06/07 02:11:07;;;;;;;16.15;14.48;;;;;;;;;;4940868;29;20040;-86
2021/06/07 02:13:33;;;;;;;17.77;14.68;;;;;;;;;;4940993;29;20059;-87
2021/06/07 02:16:00;;;;;;;18.60;15.07;;;;;;;;;;4924039;29;20090;-87
2021/06/07 02:18:27;;;;;;;19.00;15.32;;;;;;;;;;4923781;29;20044;-85
2021/06/07 02:20:53;;;;;;;16.63;14.85;;;;;;;;;;4923869;29;20032;-85
2021/06/07 02:23:20;;;;;;;17.25;15.25;;;;;;;;;;4940961;29;20041;-86
2021/06/07 02:25:46;;;;;;;23.48;16.15;;;;;;;;;;4940716;29;20107;-85
2021/06/07 02:28:13;;;;;;;18.77;14.30;;;;;;;;;;4954550;29;20425;-85
2021/06/07 02:30:40;;;;;;;16.10;14.38;;;;;;;;;;4959381;28;20043;-87
2021/06/07 02:33:06;;;;;;;16.27;14.60;;;;;;;;;;4960041;29;20043;-88
2021/06/07 02:35:32;;;;;;;16.45;14.63;;;;;;;;;;4959976;29;20042;-88
2021/06/07 02:37:59;;;;;;;19.05;14.38;;;;;;;;;;4959933;29;20031;-88
2021/06/07 02:40:27;;;;;;;18.27;14.90;;;;;;;;;;4959629;29;20126;-87
2021/06/07 02:42:53;;;;;;;17.17;14.82;;;;;;;;;;4949172;29;20027;-88
2021/06/07 02:45:20;;;;;;;20.33;15.05;;;;;;;;;;4940419;29;20546;-87
2021/06/07 02:47:47;;;;;;;19.33;14.93;;;;;;;;;;4940656;29;20040;-87
2021/06/07 02:50:14;;;;;;;17.77;14.50;;;;;;;;;;4940574;29;20031;-86
2021/06/07 02:52:47;;;;;;;21.38;15.07;;;;;;;;;;4940567;29;20035;-85
2021/06/07 02:55:14;;;;;;;46.63;35.88;;;;;;;;;;4940268;29;20099;-85
2021/06/07 02:57:40;;;;;;;35.50;23.35;;;;;;;;;;4939945;29;20434;-85
2021/06/07 03:00:07;;;;;;;18.58;14.73;;;;;;;;;;4940220;29;20152;-85
2021/06/07 03:02:52;;;;;;;17.27;14.95;;;;;;;;;;4907838;29;20059;-85
2021/06/07 03:05:18;;;;;;;22.70;14.80;;;;;;;;;;4939988;29;20060;-85
2021/06/07 03:07:44;;;;;;;18.92;14.20;;;;;;;;;;4940176;29;20032;-85
2021/06/07 03:10:10;;;;;;;20.02;14.73;;;;;;;;;;4939956;29;20043;-84
2021/06/07 03:12:37;;;;;;;18.40;14.88;;;;;;;;;;4947137;29;20417;-85
2021/06/07 03:15:06;;;;;;;20.40;14.27;;;;;;;;;;4959311;28;20043;-85
2021/06/07 03:17:33;;;;;;;19.30;14.52;;;;;;;;;;4943162;29;20055;-86
2021/06/07 03:19:59;;;;;;;19.40;14.23;;;;;;;;;;4959409;29;20047;-85
2021/06/07 03:22:25;;;;;;;20.15;14.68;;;;;;;;;;4959397;29;20033;-84
2021/06/07 03:24:51;;;;;;;16.63;14.85;;;;;;;;;;4959083;29;20413;-85
2021/06/07 03:27:18;;;;;;;17.58;14.13;;;;;;;;;;4959288;29;20035;-87
2021/06/07 03:29:45;;;;;;;17.98;14.07;;;;;;;;;;4959405;29;20061;-86
2021/06/07 03:32:12;;;;;;;21.83;12.95;;;;;;;;;;4959127;29;20071;-87
2021/06/07 03:34:38;;;;;;;19.02;13.30;;;;;;;;;;4959351;29;20374;-88
2021/06/07 03:37:04;;;;;;;18.63;13.13;;;;;;;;;;4959427;29;20035;-87
2021/06/07 03:39:30;;;;;;;14.15;12.65;;;;;;;;;;4926743;29;20094;-86
2021/06/07 03:41:56;;;;;;;16.83;14.15;;;;;;;;;;4960856;28;20039;-86
2021/06/07 03:44:22;;;;;;;18.27;12.77;;;;;;;;;;4962906;29;20043;-88
2021/06/07 03:52:56;;;;;;;15.38;13.38;;;;;;;;;;4962982;29;20120;-86
2021/06/07 03:55:24;;;;;;;18.52;14.63;;;;;;;;;;4962502;29;20051;-86
2021/06/07 03:57:51;;;;;;;23.25;14.05;;;;;;;;;;4945485;29;20039;-86
2021/06/07 04:00:19;;;;;;;18.58;13.63;;;;;;;;;;4962747;29;20027;-86
2021/06/07 04:02:45;;;;;;;16.75;13.25;;;;;;;;;;4962500;29;20070;-86
2021/06/07 04:05:12;;;;;;;17.60;13.90;;;;;;;;;;4962339;29;20041;-87
2021/06/07 04:07:39;;;;;;;14.88;13.18;;;;;;;;;;4962699;29;20063;-87
2021/06/07 04:10:07;;;;;;;18.15;13.80;;;;;;;;;;4945612;29;20437;-87
2021/06/07 04:12:33;;;;;;;20.63;13.18;;;;;;;;;;4945430;29;20031;-87
2021/06/07 04:15:00;;;;;;;18.10;13.65;;;;;;;;;;4945152;29;20050;-88
2021/06/07 04:17:45;;;;;;;18.70;14.48;;;;;;;;;;4962192;29;20418;-86
2021/06/07 04:20:13;;;;;;;16.08;13.63;;;;;;;;;;4961918;29;20066;-85
2021/06/07 04:22:39;;;;;;;15.23;12.23;;;;;;;;;;4961999;29;20520;-86
2021/06/07 04:25:06;;;;;;;16.48;12.85;;;;;;;;;;4962205;29;20039;-87
2021/06/07 04:27:32;;;;;;;16.42;11.90;;;;;;;;;;4962260;29;20321;-88
2021/06/07 04:29:58;;;;;;;13.02;10.93;;;;;;;;;;4961769;29;20387;-88
2021/06/07 04:32:25;;;;;;;14.60;11.20;;;;;;;;;;4962126;29;20039;-87
2021/06/07 04:34:51;;;;;;;14.98;10.45;;;;;;;;;;4962055;29;20029;-87
2021/06/07 04:37:17;;;;;;;17.55;11.48;;;;;;;;;;4961851;29;20043;-88
2021/06/07 04:39:43;;;;;;;13.60;10.18;;;;;;;;;;4962063;29;20087;-87
2021/06/07 04:42:09;;;;;;;12.00;10.15;;;;;;;;;;4944851;29;20061;-88
2021/06/07 04:44:36;;;;;;;13.00;10.55;;;;;;;;;;4961494;29;20032;-82
2021/06/07 04:47:02;;;;;;;16.48;9.88;;;;;;;;;;4947701;29;20115;-81
2021/06/07 04:49:28;;;;;;;20.90;11.38;;;;;;;;;;4935026;29;20044;-86
2021/06/07 04:51:54;;;;;;;12.55;10.32;;;;;;;;;;4938282;29;20036;-86
2021/06/07 04:54:21;;;;;;;12.10;10.38;;;;;;;;;;4924473;29;20159;-86
2021/06/07 04:56:47;;;;;;;12.45;9.98;;;;;;;;;;4925495;29;20036;-86
2021/06/07 04:59:13;;;;;;;12.88;11.10;;;;;;;;;;4942268;29;20032;-86
2021/06/07 05:02:17;;;;;;;13.55;9.90;;;;;;;;;;4942104;29;20044;-86
2021/06/07 05:04:43;;;;;;;12.10;9.88;;;;;;;;;;4942105;29;20083;-87
2021/06/07 05:07:09;;;;;;;17.42;10.32;;;;;;;;;;4942314;29;20036;-87
2021/06/07 05:09:35;;;;;;;26.88;10.27;;;;;;;;;;4942176;29;20032;-87
2021/06/07 05:12:05;;;;;;;13.35;9.65;;;;;;;;;;4925265;29;20059;-87
2021/06/07 05:14:31;;;;;;;10.45;9.35;;;;;;;;;;4942001;29;20044;-86
2021/06/07 05:16:57;;;;;;;11.98;10.23;;;;;;;;;;4942187;29;20035;-87
2021/06/07 05:19:23;;;;;;;12.82;9.40;;;;;;;;;;4941623;29;20055;-87
2021/06/07 05:21:49;;;;;;;16.55;9.88;;;;;;;;;;4941835;29;20445;-86
2021/06/07 05:24:15;;;;;;;12.43;10.02;;;;;;;;;;4941901;29;20039;-87
2021/06/07 05:26:41;;;;;;;10.18;9.15;;;;;;;;;;4941600;29;20031;-86
2021/06/07 05:29:07;;;;;;;12.43;9.77;;;;;;;;;;4954089;29;20338;-86
2021/06/07 05:31:33;;;;;;;13.23;9.32;;;;;;;;;;4961220;29;20369;-87
2021/06/07 05:33:59;;;;;;;11.25;9.10;;;;;;;;;;4961135;29;20035;-87
2021/06/07 05:36:25;;;;;;;14.07;9.50;;;;;;;;;;4960643;29;20410;-87
2021/06/07 05:38:52;;;;;;;12.10;9.35;;;;;;;;;;4961046;29;20065;-87
2021/06/07 05:41:18;;;;;;;12.05;9.23;;;;;;;;;;4960876;29;20389;-87
2021/06/07 05:43:44;;;;;;;12.25;10.40;;;;;;;;;;4960588;29;20035;-87
2021/06/07 05:46:10;;;;;;;8.85;7.63;;;;;;;;;;4960789;29;20031;-87
2021/06/07 05:48:36;;;;;;;12.38;8.77;;;;;;;;;;4943900;29;20050;-86
2021/06/07 05:51:02;;;;;;;9.82;7.85;;;;;;;;;;4943580;29;20035;-87
2021/06/07 05:53:28;;;;;;;9.98;7.93;;;;;;;;;;4943807;29;20031;-87
2021/06/07 05:55:54;;;;;;;13.00;7.50;;;;;;;;;;4960711;29;20035;-87
2021/06/07 05:58:21;;;;;;;12.90;8.80;;;;;;;;;;4951718;29;20482;-86
2021/06/07 06:00:48;;;;;;;13.18;8.30;;;;;;;;;;4941141;29;20036;-87
2021/06/07 06:03:15;;;;;;;10.35;7.28;;;;;;;;;;4924415;29;20035;-87
2021/06/07 06:05:41;;;;;;;12.35;8.00;;;;;;;;;;4940105;29;20028;-87
2021/06/07 06:08:07;;;;;;;9.70;7.68;;;;;;;;;;4941338;29;20032;-87
2021/06/07 06:10:34;;;;;;;15.07;7.78;;;;;;;;;;4930108;29;20469;-87
2021/06/07 06:13:00;;;;;;;11.60;8.43;;;;;;;;;;4943153;29;20047;-87
2021/06/07 06:15:26;;;;;;;14.43;7.85;;;;;;;;;;4960263;28;20321;-87
2021/06/07 06:21:10;;;;;;;9.20;7.30;;;;;;;;;;4947229;29;20549;-87
2021/06/07 06:23:36;;;;;;;13.93;7.70;;;;;;;;;;4959978;29;20122;-87
2021/06/07 06:26:03;;;;;;;13.35;8.50;;;;;;;;;;4960174;29;20039;-88
2021/06/07 06:28:30;;;;;;;10.15;6.05;;;;;;;;;;4960071;29;20039;-88
2021/06/07 06:30:56;;;;;;;9.10;6.80;;;;;;;;;;4960064;29;20031;-89
2021/06/07 06:33:22;;;;;;;6.80;5.15;;;;;;;;;;4943379;29;20042;-87
2021/06/07 06:35:48;;;;;;;6.43;5.82;;;;;;;;;;4959790;29;20134;-87
2021/06/07 06:38:16;;;;;;;9.48;6.13;;;;;;;;;;4960243;29;20035;-88
2021/06/07 06:40:42;;;;;;;8.77;6.53;;;;;;;;;;4959795;29;20039;-87
2021/06/07 06:43:08;;;;;;;7.03;6.30;;;;;;;;;;4942777;29;20043;-88
2021/06/07 06:45:35;;;;;;;6.53;5.93;;;;;;;;;;4959883;29;20361;-88
2021/06/07 06:54:08;;;;;;;6.18;5.50;;;;;;;;;;4959891;29;20042;-88
2021/06/07 06:56:34;;;;;;;6.80;4.57;;;;;;;;;;4942630;29;20094;-82
2021/06/07 06:59:00;;;;;;;5.40;4.20;;;;;;;;;;4942381;29;20067;-87
2021/06/07 07:01:27;;;;;;;7.05;4.55;;;;;;;;;;4959830;29;20055;-86
2021/06/07 07:03:53;;;;;;;5.30;4.18;;;;;;;;;;4959331;29;20380;-87
2021/06/07 07:06:20;;;;;;;6.78;4.45;;;;;;;;;;4959356;29;20421;-87
2021/06/07 07:08:46;;;;;;;5.35;4.85;;;;;;;;;;4942395;29;20043;-86
2021/06/07 07:11:12;;;;;;;14.75;10.43;;;;;;;;;;4959351;29;20039;-86
2021/06/07 07:13:39;;;;;;;5.28;4.60;;;;;;;;;;4958890;28;20134;-88
2021/06/07 07:16:05;;;;;;;8.95;4.90;;;;;;;;;;4960118;28;20043;-87
2021/06/07 07:18:31;;;;;;;9.57;6.28;;;;;;;;;;4963058;29;20049;-86
2021/06/07 07:20:57;;;;;;;8.68;5.72;;;;;;;;;;4962965;29;20167;-86
2021/06/07 07:23:24;;;;;;;5.68;4.07;;;;;;;;;;4963069;29;20027;-86
2021/06/07 07:25:50;;;;;;;8.45;4.35;;;;;;;;;;4945888;29;20075;-87
2021/06/07 07:28:17;;;;;;;4.60;3.80;;;;;;;;;;4963310;29;20035;-88
2021/06/07 07:30:44;;;;;;;10.73;4.28;;;;;;;;;;4962857;29;20031;-87
2021/06/07 07:33:11;;;;;;;6.70;3.92;;;;;;;;;;4963233;29;20044;-86
2021/06/07 07:35:37;;;;;;;4.72;4.20;;;;;;;;;;4963345;29;20039;-87
2021/06/07 07:38:03;;;;;;;8.18;4.32;;;;;;;;;;4963257;29;20043;-86
2021/06/07 07:40:30;;;;;;;4.20;3.80;;;;;;;;;;4938256;29;20091;-87
2021/06/07 07:42:57;;;;;;;11.90;3.92;;;;;;;;;;4942427;29;20430;-86
2021/06/07 07:45:26;;;;;;;12.82;4.28;;;;;;;;;;4942199;29;20083;-87
2021/06/07 07:47:53;;;;;;;15.05;3.95;;;;;;;;;;4943261;29;20125;-88
2021/06/07 07:50:19;;;;;;;3.42;3.13;;;;;;;;;;4943595;29;20031;-87
2021/06/07 07:52:46;;;;;;;7.28;3.83;;;;;;;;;;4943897;29;20032;-87
2021/06/07 07:55:13;;;;;;;4.68;3.58;;;;;;;;;;4943346;29;20040;-87
2021/06/07 07:57:41;;;;;;;5.32;3.78;;;;;;;;;;4943427;29;20430;-87
2021/06/07 08:00:08;;;;;;;6.10;3.55;;;;;;;;;;4926560;29;20032;-86
2021/06/07 08:02:34;;;;;;;16.73;3.72;;;;;;;;;;4943343;29;20024;-86
2021/06/07 08:05:00;;;;;;;10.52;4.20;;;;;;;;;;4943244;29;20032;-90
2021/06/07 08:07:26;;;;;;;6.05;3.42;;;;;;;;;;4943264;29;20070;-86
2021/06/07 08:09:52;;;;;;;6.30;3.80;;;;;;;;;;4943215;29;20032;-86
2021/06/07 08:12:18;;;;;;;4.28;3.17;;;;;;;;;;4943256;29;20039;-86
2021/06/07 08:14:45;;;;;;;5.68;3.50;;;;;;;;;;4925723;29;20090;-86
2021/06/07 08:17:11;;;;;;;4.70;3.53;;;;;;;;;;4942599;29;20040;-86
2021/06/07 08:19:37;;;;;;;4.07;3.40;;;;;;;;;;4942930;29;20035;-87
2021/06/07 08:22:04;;;;;;;3.10;2.80;;;;;;;;;;4942893;29;20048;-86
2021/06/07 08:24:30;;;;;;;5.18;3.03;;;;;;;;;;4925489;29;20060;-86
2021/06/07 08:26:56;;;;;;;5.05;3.20;;;;;;;;;;4942980;29;20426;-86
2021/06/07 08:29:22;;;;;;;3.50;2.95;;;;;;;;;;4941401;29;20044;-86
2021/06/07 08:31:48;;;;;;;4.55;2.88;;;;;;;;;;4926003;29;20044;-86
2021/06/07 08:34:14;;;;;;;3.80;3.15;;;;;;;;;;4942732;29;20445;-86
2021/06/07 08:36:41;;;;;;;3.70;3.03;;;;;;;;;;4942805;29;20139;-86
2021/06/07 08:39:10;;;;;;;4.45;3.28;;;;;;;;;;4942557;29;20115;-86
2021/06/07 08:41:36;;;;;;;5.80;3.00;;;;;;;;;;4942625;29;20437;-87
2021/06/07 08:44:02;;;;;;;3.10;2.50;;;;;;;;;;4942601;29;20074;-87
2021/06/07 08:46:28;;;;;;;5.63;3.05;;;;;;;;;;4925780;29;20063;-86
2021/06/07 08:48:54;;;;;;;4.53;3.22;;;;;;;;;;4942534;29;20083;-87
2021/06/07 08:51:20;;;;;;;4.95;3.13;;;;;;;;;;4942453;29;20049;-86
2021/06/07 08:53:47;;;;;;;8.77;3.45;;;;;;;;;;4925549;29;20477;-86
2021/06/07 08:56:14;;;;;;;7.03;2.90;;;;;;;;;;4942324;29;20118;-86
2021/06/07 08:58:40;;;;;;;4.97;3.00;;;;;;;;;;4942140;29;20421;-87
2021/06/07 09:01:06;;;;;;;5.03;2.97;;;;;;;;;;4942237;29;20043;-87
2021/06/07 09:03:34;;;;;;;6.03;3.30;;;;;;;;;;4942129;29;20084;-87
2021/06/07 09:06:01;;;;;;;6.35;2.97;;;;;;;;;;4942121;29;20047;-87
2021/06/07 09:08:34;;;;;;;4.20;2.47;;;;;;;;;;4925320;29;20028;-86
2021/06/07 09:11:06;;;;;;;7.05;3.28;;;;;;;;;;4925528;29;20046;-87
2021/06/07 09:13:32;;;;;;;6.13;3.45;;;;;;;;;;4925017;29;20110;-86
2021/06/07 09:16:00;;;;;;;5.63;3.65;;;;;;;;;;4924979;29;20040;-87
2021/06/07 09:18:31;;;;;;;3.90;3.50;;;;;;;;;;4941899;29;20068;-87
2021/06/07 09:21:01;;;;;;;4.30;3.25;;;;;;;;;;4941877;29;20052;-87
2021/06/07 09:23:48;;;;;;;6.25;3.60;;;;;;;;;;4925115;29;20036;-86
2021/06/07 09:26:24;;;;;;;4.45;3.47;;;;;;;;;;4941738;29;20469;-87
2021/06/07 09:28:50;;;;;;;4.55;3.53;;;;;;;;;;4941832;29;20515;-87
2021/06/07 09:31:16;;;;;;;6.45;3.70;;;;;;;;;;4941845;29;20106;-86
2021/06/07 09:33:47;;;;;;;6.57;3.35;;;;;;;;;;4941586;29;20114;-87
2021/06/07 09:36:30;;;;;;;5.78;3.67;;;;;;;;;;4941827;29;20099;-86
2021/06/07 09:39:01;;;;;;;9.57;3.30;;;;;;;;;;4941277;29;20426;-87
2021/06/07 09:41:28;;;;;;;4.93;3.45;;;;;;;;;;4941507;29;20360;-87
2021/06/07 09:43:58;;;;;;;3.85;3.00;;;;;;;;;;4941650;29;20040;-87
2021/06/07 09:46:29;;;;;;;5.15;2.80;;;;;;;;;;4924643;29;20426;-88
2021/06/07 09:49:15;;;;;;;5.32;3.10;;;;;;;;;;4941522;29;20051;-86
2021/06/07 09:51:50;;;;;;;6.18;3.45;;;;;;;;;;4941302;29;20032;-87
2021/06/07 09:54:17;;;;;;;7.25;3.13;;;;;;;;;;4941224;29;20115;-86
2021/06/07 09:56:50;;;;;;;5.15;3.03;;;;;;;;;;4941063;29;20046;-87
2021/06/07 09:59:50;;;;;;;5.90;3.50;;;;;;;;;;4941230;29;20083;-87
2021/06/07 10:02:18;;;;;;;6.78;2.90;;;;;;;;;;4882871;29;20084;-87
2021/06/07 10:04:48;;;;;;;6.95;3.03;;;;;;;;;;4867607;29;20052;-86
2021/06/07 10:07:14;;;;;;;6.43;3.50;;;;;;;;;;4882860;29;20049;-87
2021/06/07 10:09:40;;;;;;;5.53;2.70;;;;;;;;;;4867453;29;20133;-90
2021/06/07 10:12:23;;;;;;;5.40;3.00;;;;;;;;;;4882655;29;20043;-87
2021/06/07 10:14:49;;;;;;;6.75;3.28;;;;;;;;;;4882666;29;20105;-87
2021/06/07 10:17:15;;;;;;;12.55;3.58;;;;;;;;;;4882523;29;20072;-87
2021/06/07 10:22:07;;;;;;;7.68;3.33;;;;;;;;;;4882429;29;20045;-86
2021/06/07 10:24:34;;;;;;;4.75;3.50;;;;;;;;;;4866862;29;20041;-86
2021/06/07 10:27:00;;;;;;;7.20;2.83;;;;;;;;;;4882614;29;20041;-85
2021/06/07 10:29:36;;;;;;;7.55;2.80;;;;;;;;;;4866946;29;20041;-87
2021/06/07 10:32:10;;;;;;;4.20;2.60;;;;;;;;;;4866953;29;20089;-87
2021/06/07 10:35:02;;;;;;;4.93;3.30;;;;;;;;;;4894649;29;20395;-86
2021/06/07 10:37:31;;;;;;;5.80;3.70;;;;;;;;;;4905300;29;20127;-86
2021/06/07 10:40:16;;;;;;;9.43;4.07;;;;;;;;;;4959709;29;20035;-86
2021/06/07 10:43:03;;;;;;;6.47;3.45;;;;;;;;;;4959934;28;20047;-86
2021/06/07 10:45:30;;;;;;;8.60;3.45;;;;;;;;;;4952094;29;20036;-86
2021/06/07 10:47:56;;;;;;;4.45;2.95;;;;;;;;;;4930855;29;20054;-85
2021/06/07 10:50:24;;;;;;;4.63;3.70;;;;;;;;;;4940741;28;20031;-88
2021/06/07 10:52:57;;;;;;;5.22;3.10;;;;;;;;;;4933286;29;20069;-88
2021/06/07 10:55:34;;;;;;;7.72;3.03;;;;;;;;;;4924948;29;20046;-87
2021/06/07 10:58:05;;;;;;;6.72;3.25;;;;;;;;;;4941657;29;20043;-87
2021/06/07 11:00:31;;;;;;;6.60;2.90;;;;;;;;;;4942950;29;20063;-87
2021/06/07 11:03:00;;;;;;;6.53;4.40;;;;;;;;;;4943101;29;20028;-86
2021/06/07 11:05:33;;;;;;;3.88;2.75;;;;;;;;;;4942451;29;20028;-86
2021/06/07 11:08:05;;;;;;;6.20;5.20;;;;;;;;;;4942135;29;20040;-86
2021/06/07 11:10:52;;;;;;;10.75;2.95;;;;;;;;;;4942635;29;20075;-86
2021/06/07 11:13:19;;;;;;;5.22;3.28;;;;;;;;;;4941796;29;20044;-85
2021/06/07 11:15:55;;;;;;;4.55;3.30;;;;;;;;;;4941965;29;20052;-86
2021/06/07 11:18:49;;;;;;;5.80;4.03;;;;;;;;;;4925563;29;20036;-87
2021/06/07 11:21:24;;;;;;;8.20;3.72;;;;;;;;;;4940722;29;20052;-86
2021/06/07 11:23:50;;;;;;;7.70;3.67;;;;;;;;;;4941155;29;20032;-87
2021/06/07 11:26:21;;;;;;;4.82;3.30;;;;;;;;;;4940139;29;20035;-87
2021/06/07 11:28:51;;;;;;;8.88;4.07;;;;;;;;;;4940159;29;20371;-87
2021/06/07 11:31:20;;;;;;;4.78;2.92;;;;;;;;;;4940078;29;20051;-87
2021/06/07 11:33:48;;;;;;;4.63;3.05;;;;;;;;;;4940166;29;20073;-88
2021/06/07 11:36:33;;;;;;;4.40;3.40;;;;;;;;;;4940063;29;20039;-87
2021/06/07 11:39:01;;;;;;;12.30;4.00;;;;;;;;;;4939811;29;20059;-87
2021/06/07 11:41:46;;;;;;;3.47;2.97;;;;;;;;;;4939918;29;20036;-86
2021/06/07 11:44:14;;;;;;;5.78;3.70;;;;;;;;;;4940090;29;20083;-86
2021/06/07 11:46:40;;;;;;;6.90;3.90;;;;;;;;;;4939866;29;20119;-87
2021/06/07 11:49:07;;;;;;;8.45;5.78;;;;;;;;;;4939711;29;20441;-87
2021/06/07 11:51:34;;;;;;;7.53;3.88;;;;;;;;;;4939888;29;20304;-87
2021/06/07 11:54:00;;;;;;;8.10;3.40;;;;;;;;;;4939900;29;20043;-86
2021/06/07 11:56:26;;;;;;;9.65;3.90;;;;;;;;;;4922905;29;20035;-87
2021/06/07 11:58:53;;;;;;;5.55;3.40;;;;;;;;;;4939798;29;20040;-86
2021/06/07 12:01:19;;;;;;;6.97;2.80;;;;;;;;;;4922975;29;20359;-86
2021/06/07 12:03:46;;;;;;;7.45;4.22;;;;;;;;;;4925961;29;20040;-87
2021/06/07 12:06:12;;;;;;;5.65;2.65;;;;;;;;;;4943220;29;20042;-87
2021/06/07 12:08:40;;;;;;;4.43;2.80;;;;;;;;;;4942969;29;20043;-86
2021/06/07 12:11:06;;;;;;;3.38;2.42;;;;;;;;;;4943187;29;20427;-87
2021/06/07 12:13:34;;;;;;;5.00;3.08;;;;;;;;;;4926189;29;20047;-86
2021/06/07 12:16:01;;;;;;;8.32;4.03;;;;;;;;;;4943419;29;20322;-87
2021/06/07 12:18:31;;;;;;;6.60;3.40;;;;;;;;;;4943005;29;20046;-87
2021/06/07 12:20:59;;;;;;;3.72;2.80;;;;;;;;;;4942922;29;20066;-86
2021/06/07 12:23:29;;;;;;;7.13;3.60;;;;;;;;;;4926178;29;20080;-86
2021/06/07 12:28:37;;;;;;;;;;;;;;;;;;4943529;29;20050;-87
2021/06/07 12:31:03;;;;;;;5.10;3.55;;;;;;;;;;4942822;29;19937;-86
2021/06/07 12:33:31;;;;;;;6.18;2.63;;;;;;;;;;4942914;29;20050;-88
2021/06/07 12:35:57;;;;;;;6.68;2.88;;;;;;;;;;4925673;29;20039;-87
2021/06/07 12:38:24;;;;;;;3.75;2.50;;;;;;;;;;4942746;29;20433;-86
2021/06/07 12:40:51;;;;;;;3.42;2.45;;;;;;;;;;4943083;29;20083;-87
2021/06/07 12:43:18;;;;;;;6.15;3.65;;;;;;;;;;4942448;29;20087;-87
2021/06/07 12:45:56;;;;;;;3.72;2.40;;;;;;;;;;4942525;29;20034;-86
2021/06/07 12:48:23;;;;;;;4.93;2.60;;;;;;;;;;4925644;29;20044;-87
2021/06/07 12:50:49;;;;;;;3.38;2.58;;;;;;;;;;4942404;29;20063;-86
2021/06/07 12:53:16;;;;;;;3.17;2.50;;;;;;;;;;4925587;29;20036;-87
2021/06/07 12:55:43;;;;;;;3.78;2.55;;;;;;;;;;4925606;29;20043;-86
2021/06/07 12:58:14;;;;;;;4.30;2.10;;;;;;;;;;4942445;29;20043;-87
2021/06/07 13:00:49;;;;;;;5.07;2.47;;;;;;;;;;4942472;29;20127;-87
2021/06/07 13:03:23;;;;;;;5.28;2.35;;;;;;;;;;4942259;29;20111;-87
2021/06/07 13:06:19;;;;;;;4.93;2.17;;;;;;;;;;4942094;29;20035;-87
2021/06/07 13:08:51;;;;;;;6.97;2.28;;;;;;;;;;4883984;29;20142;-87
2021/06/07 13:11:24;;;;;;;5.78;2.67;;;;;;;;;;4868125;29;20045;-87
2021/06/07 13:13:53;;;;;;;5.47;2.65;;;;;;;;;;4883372;29;20129;-87
2021/06/07 13:16:26;;;;;;;6.57;2.47;;;;;;;;;;4868256;29;20040;-87
2021/06/07 13:19:03;;;;;;;4.00;2.40;;;;;;;;;;4868002;29;20037;-86
2021/06/07 13:21:29;;;;;;;6.93;3.05;;;;;;;;;;4868019;29;20068;-87
2021/06/07 13:23:55;;;;;;;7.15;2.15;;;;;;;;;;4883580;29;20120;-87
2021/06/07 13:26:23;;;;;;;2.75;2.20;;;;;;;;;;4883416;29;20037;-87
2021/06/07 13:29:10;;;;;;;2.58;2.13;;;;;;;;;;4883433;29;20416;-86
2021/06/07 13:31:54;;;;;;;5.53;2.30;;;;;;;;;;4869435;29;20109;-84
2021/06/07 13:34:28;;;;;;;4.43;2.45;;;;;;;;;;4869723;29;20048;-86
2021/06/07 13:37:07;;;;;;;6.93;2.58;;;;;;;;;;4884346;29;20431;-87
2021/06/07 13:39:35;;;;;;;4.53;2.60;;;;;;;;;;4886933;29;20041;-84
2021/06/07 13:42:01;;;;;;;6.53;2.63;;;;;;;;;;4888213;29;20033;-86
2021/06/07 13:44:27;;;;;;;4.10;2.55;;;;;;;;;;4900647;29;20043;-87
2021/06/07 13:47:01;;;;;;;4.57;2.60;;;;;;;;;;4926387;29;20066;-87
2021/06/07 13:49:27;;;;;;;7.18;3.13;;;;;;;;;;4943823;29;20438;-87
2021/06/07 13:51:54;;;;;;;6.50;2.92;;;;;;;;;;4926864;29;20127;-88
2021/06/07 13:54:20;;;;;;;6.00;3.47;;;;;;;;;;4944261;29;20032;-88
2021/06/07 13:56:46;;;;;;;6.20;3.88;;;;;;;;;;4943725;29;20055;-87
2021/06/07 13:59:22;;;;;;;4.47;2.92;;;;;;;;;;4942836;29;20036;-87
2021/06/07 14:01:52;;;;;;;8.20;3.67;;;;;;;;;;4942315;29;20063;-87
2021/06/07 14:04:20;;;;;;;5.50;2.55;;;;;;;;;;4945981;29;20040;-87
2021/06/07 14:06:49;;;;;;;3.33;2.42;;;;;;;;;;4929443;29;20043;-87
2021/06/07 14:09:16;;;;;;;8.35;3.90;;;;;;;;;;4945781;29;20039;-88
2021/06/07 14:11:46;;;;;;;4.72;2.95;;;;;;;;;;4943461;29;20095;-86
2021/06/07 14:14:14;;;;;;;4.93;3.22;;;;;;;;;;4940750;29;20118;-87
2021/06/07 14:16:40;;;;;;;6.57;4.15;;;;;;;;;;4940884;29;20047;-87
2021/06/07 14:19:06;;;;;;;6.40;3.67;;;;;;;;;;4940590;29;20103;-87
2021/06/07 14:21:44;;;;;;;14.55;3.65;;;;;;;;;;4940647;29;20044;-86
2021/06/07 14:24:52;;;;;;;4.72;3.33;;;;;;;;;;4924100;29;20047;-86
2021/06/07 14:26:59;;;;;;;9.40;4.10;;;;;;;;;;4932188;29;20438;-86
2021/06/07 14:29:25;;;;;;;13.35;9.05;;;;;;;;;;4923857;29;20031;-86
2021/06/07 14:31:53;;;;;;;8.50;4.80;;;;;;;;;;4940833;29;20036;-86
2021/06/07 14:34:19;;;;;;;10.38;6.53;;;;;;;;;;4940394;29;20102;-86
2021/06/07 14:36:46;;;;;;;19.77;12.02;;;;;;;;;;4923789;29;20035;-86
2021/06/07 14:39:12;;;;;;;17.63;9.70;;;;;;;;;;4940632;29;20330;-87
2021/06/07 14:41:38;;;;;;;18.95;11.80;;;;;;;;;;4940594;29;20035;-86
2021/06/07 14:44:04;;;;;;;33.83;20.88;;;;;;;;;;4940669;29;20412;-87
2021/06/07 14:46:30;;;;;;;17.00;7.63;;;;;;;;;;4940332;29;20067;-87
2021/06/07 14:48:56;;;;;;;12.35;6.75;;;;;;;;;;4923511;29;20047;-87
2021/06/07 14:51:23;;;;;;;10.38;3.97;;;;;;;;;;4940677;29;20051;-86
2021/06/07 14:53:49;;;;;;;9.43;5.57;;;;;;;;;;4940483;29;20132;-87
2021/06/07 14:56:15;;;;;;;3.03;2.50;;;;;;;;;;4923540;29;20040;-86
2021/06/07 14:58:41;;;;;;;12.07;8.70;;;;;;;;;;4940268;29;20036;-86
2021/06/07 15:01:08;;;;;;;10.43;5.60;;;;;;;;;;4923432;29;20111;-87
2021/06/07 15:03:34;;;;;;;10.75;6.47;;;;;;;;;;4939972;29;20039;-86
2021/06/07 15:06:00;;;;;;;6.10;2.45;;;;;;;;;;4940408;29;20051;-88
2021/06/07 15:08:26;;;;;;;6.82;3.95;;;;;;;;;;4940146;29;20032;-89
2021/06/07 15:10:52;;;;;;;4.38;2.50;;;;;;;;;;4940232;29;20334;-87
2021/06/07 15:13:19;;;;;;;4.45;2.95;;;;;;;;;;4940427;29;20423;-87